sensor_id;sensor_type;location;lat;lon;timestamp;P1;durP1;ratioP1;P2;durP2;ratioP2
39308;SDS011;26019;47.510;19.122;2022-10-17T00:08:29;32.50;;;20.77;;
39308;SDS011;26019;47.510;19.122;2022-10-17T00:18:30;32.80;;;21.23;;
39308;SDS011;26019;47.510;19.122;2022-10-17T00:28:33;33.60;;;22.77;;
39308;SDS011;26019;47.510;19.122;2022-10-17T00:38:35;36.13;;;22.57;;
39308;SDS011;26019;47.510;19.122;2022-10-17T00:48:38;31.88;;;21.15;;
39308;SDS011;26019;47.510;19.122;2022-10-17T00:58:40;38.37;;;22.47;;
39308;SDS011;26019;47.510;19.122;2022-10-17T01:08:42;32.08;;;21.17;;
39308;SDS011;26019;47.510;19.122;2022-10-17T01:18:50;37.13;;;22.13;;
39308;SDS011;26019;47.510;19.122;2022-10-17T01:49:30;34.67;;;22.27;;
39308;SDS011;26019;47.510;19.122;2022-10-17T02:09:44;30.80;;;21.42;;
39308;SDS011;26019;47.510;19.122;2022-10-17T02:40:19;31.65;;;22.88;;
39308;SDS011;26019;47.510;19.122;2022-10-17T02:50:32;30.80;;;22.35;;
39308;SDS011;26019;47.510;19.122;2022-10-17T03:00:46;34.67;;;22.88;;
39308;SDS011;26019;47.510;19.122;2022-10-17T03:10:49;34.05;;;23.15;;
39308;SDS011;26019;47.510;19.122;2022-10-17T03:20:51;43.80;;;23.08;;
39308;SDS011;26019;47.510;19.122;2022-10-17T03:30:53;34.28;;;23.20;;
39308;SDS011;26019;47.510;19.122;2022-10-17T03:40:56;33.40;;;22.30;;
39308;SDS011;26019;47.510;19.122;2022-10-17T03:50:59;38.80;;;23.77;;
39308;SDS011;26019;47.510;19.122;2022-10-17T04:01:05;43.60;;;23.88;;
39308;SDS011;26019;47.510;19.122;2022-10-17T04:11:10;36.97;;;23.00;;
39308;SDS011;26019;47.510;19.122;2022-10-17T04:21:16;37.50;;;23.42;;
39308;SDS011;26019;47.510;19.122;2022-10-17T04:31:18;62.30;;;27.60;;
39308;SDS011;26019;47.510;19.122;2022-10-17T04:41:20;40.70;;;24.27;;
39308;SDS011;26019;47.510;19.122;2022-10-17T04:51:23;43.22;;;25.77;;
39308;SDS011;26019;47.510;19.122;2022-10-17T05:01:27;44.58;;;24.27;;
39308;SDS011;26019;47.510;19.122;2022-10-17T05:11:30;44.42;;;25.20;;
39308;SDS011;26019;47.510;19.122;2022-10-17T05:21:38;48.80;;;26.15;;
39308;SDS011;26019;47.510;19.122;2022-10-17T05:31:50;47.45;;;25.55;;
39308;SDS011;26019;47.510;19.122;2022-10-17T05:41:52;40.42;;;24.13;;
39308;SDS011;26019;47.510;19.122;2022-10-17T05:51:56;46.92;;;27.23;;
39308;SDS011;26019;47.510;19.122;2022-10-17T06:02:03;37.78;;;25.25;;
39308;SDS011;26019;47.510;19.122;2022-10-17T06:12:05;41.85;;;24.48;;
39308;SDS011;26019;47.510;19.122;2022-10-17T06:22:07;41.70;;;22.70;;
39308;SDS011;26019;47.510;19.122;2022-10-17T06:32:10;32.78;;;20.40;;
39308;SDS011;26019;47.510;19.122;2022-10-17T06:42:21;36.63;;;21.33;;
39308;SDS011;26019;47.510;19.122;2022-10-17T06:52:23;28.20;;;19.40;;
39308;SDS011;26019;47.510;19.122;2022-10-17T07:02:24;29.30;;;17.35;;
39308;SDS011;26019;47.510;19.122;2022-10-17T07:23:01;37.75;;;17.75;;
39308;SDS011;26019;47.510;19.122;2022-10-17T07:33:04;34.83;;;18.75;;
39308;SDS011;26019;47.510;19.122;2022-10-17T07:43:08;30.20;;;16.23;;
39308;SDS011;26019;47.510;19.122;2022-10-17T07:53:10;25.10;;;14.95;;
39308;SDS011;26019;47.510;19.122;2022-10-17T08:03:12;24.75;;;14.35;;
39308;SDS011;26019;47.510;19.122;2022-10-17T08:13:14;23.38;;;14.68;;
39308;SDS011;26019;47.510;19.122;2022-10-17T08:23:16;28.58;;;14.48;;
39308;SDS011;26019;47.510;19.122;2022-10-17T08:33:23;18.00;;;11.70;;
39308;SDS011;26019;47.510;19.122;2022-10-17T08:43:30;20.05;;;12.80;;
39308;SDS011;26019;47.510;19.122;2022-10-17T09:14:46;15.63;;;7.80;;
39308;SDS011;26019;47.510;19.122;2022-10-17T09:25:02;18.00;;;6.80;;
39308;SDS011;26019;47.510;19.122;2022-10-17T09:35:11;12.57;;;7.35;;
39308;SDS011;26019;47.510;19.122;2022-10-17T09:55:28;9.43;;;5.88;;
39308;SDS011;26019;47.510;19.122;2022-10-17T10:05:38;15.32;;;6.15;;
39308;SDS011;26019;47.510;19.122;2022-10-17T10:15:43;8.63;;;5.38;;
39308;SDS011;26019;47.510;19.122;2022-10-17T10:25:53;6.88;;;5.25;;
39308;SDS011;26019;47.510;19.122;2022-10-17T10:35:57;9.93;;;5.85;;
39308;SDS011;26019;47.510;19.122;2022-10-17T10:46:15;7.30;;;4.65;;
39308;SDS011;26019;47.510;19.122;2022-10-17T11:06:35;11.10;;;4.95;;
39308;SDS011;26019;47.510;19.122;2022-10-17T11:16:42;10.00;;;4.90;;
39308;SDS011;26019;47.510;19.122;2022-10-17T11:26:54;10.50;;;5.35;;
39308;SDS011;26019;47.510;19.122;2022-10-17T11:37:05;7.28;;;4.60;;
39308;SDS011;26019;47.510;19.122;2022-10-17T11:57:44;8.50;;;4.38;;
39308;SDS011;26019;47.510;19.122;2022-10-17T12:07:57;12.95;;;4.82;;
39308;SDS011;26019;47.510;19.122;2022-10-17T12:18:31;8.13;;;4.60;;
39308;SDS011;26019;47.510;19.122;2022-10-17T12:38:38;6.68;;;4.00;;
39308;SDS011;26019;47.510;19.122;2022-10-17T12:58:47;14.05;;;3.95;;
39308;SDS011;26019;47.510;19.122;2022-10-17T13:08:55;9.07;;;4.30;;
39308;SDS011;26019;47.510;19.122;2022-10-17T13:19:16;9.30;;;4.43;;
39308;SDS011;26019;47.510;19.122;2022-10-17T13:29:20;11.55;;;3.72;;
39308;SDS011;26019;47.510;19.122;2022-10-17T13:39:26;7.75;;;3.67;;
39308;SDS011;26019;47.510;19.122;2022-10-17T13:49:51;10.23;;;3.65;;
39308;SDS011;26019;47.510;19.122;2022-10-17T13:59:56;6.80;;;3.70;;
39308;SDS011;26019;47.510;19.122;2022-10-17T14:10:00;7.45;;;3.35;;
39308;SDS011;26019;47.510;19.122;2022-10-17T14:20:17;7.72;;;4.10;;
39308;SDS011;26019;47.510;19.122;2022-10-17T14:41:02;11.05;;;3.80;;
39308;SDS011;26019;47.510;19.122;2022-10-17T14:51:29;5.35;;;4.25;;
39308;SDS011;26019;47.510;19.122;2022-10-17T15:01:53;9.88;;;4.13;;
39308;SDS011;26019;47.510;19.122;2022-10-17T15:11:57;8.60;;;4.00;;
39308;SDS011;26019;47.510;19.122;2022-10-17T15:22:02;8.55;;;4.30;;
39308;SDS011;26019;47.510;19.122;2022-10-17T15:32:04;9.60;;;4.35;;
39308;SDS011;26019;47.510;19.122;2022-10-17T15:42:09;13.23;;;4.43;;
39308;SDS011;26019;47.510;19.122;2022-10-17T15:52:12;12.00;;;5.88;;
39308;SDS011;26019;47.510;19.122;2022-10-17T16:02:19;13.05;;;6.78;;
39308;SDS011;26019;47.510;19.122;2022-10-17T16:12:26;10.70;;;6.00;;
39308;SDS011;26019;47.510;19.122;2022-10-17T16:22:30;7.80;;;5.10;;
39308;SDS011;26019;47.510;19.122;2022-10-17T16:32:37;14.80;;;6.20;;
39308;SDS011;26019;47.510;19.122;2022-10-17T16:42:40;18.38;;;5.85;;
39308;SDS011;26019;47.510;19.122;2022-10-17T16:52:41;17.17;;;6.40;;
39308;SDS011;26019;47.510;19.122;2022-10-17T17:02:46;13.63;;;6.78;;
39308;SDS011;26019;47.510;19.122;2022-10-17T17:12:49;18.67;;;6.65;;
39308;SDS011;26019;47.510;19.122;2022-10-17T17:22:51;15.63;;;8.82;;
39308;SDS011;26019;47.510;19.122;2022-10-17T17:32:55;18.85;;;8.90;;
39308;SDS011;26019;47.510;19.122;2022-10-17T17:43:03;19.50;;;8.40;;
39308;SDS011;26019;47.510;19.122;2022-10-17T17:53:05;20.30;;;8.87;;
39308;SDS011;26019;47.510;19.122;2022-10-17T18:03:15;19.08;;;10.18;;
39308;SDS011;26019;47.510;19.122;2022-10-17T18:13:17;21.95;;;10.23;;
39308;SDS011;26019;47.510;19.122;2022-10-17T18:23:22;24.67;;;11.63;;
39308;SDS011;26019;47.510;19.122;2022-10-17T18:33:24;26.90;;;12.10;;
39308;SDS011;26019;47.510;19.122;2022-10-17T18:43:28;24.63;;;15.27;;
39308;SDS011;26019;47.510;19.122;2022-10-17T18:53:30;25.33;;;13.15;;
39308;SDS011;26019;47.510;19.122;2022-10-17T19:03:32;23.70;;;14.00;;
39308;SDS011;26019;47.510;19.122;2022-10-17T19:13:35;36.42;;;15.95;;
39308;SDS011;26019;47.510;19.122;2022-10-17T19:23:53;35.50;;;16.05;;
39308;SDS011;26019;47.510;19.122;2022-10-17T19:33:57;35.00;;;17.90;;
39308;SDS011;26019;47.510;19.122;2022-10-17T19:43:59;28.57;;;17.87;;
39308;SDS011;26019;47.510;19.122;2022-10-17T19:54:09;31.90;;;18.20;;
39308;SDS011;26019;47.510;19.122;2022-10-17T20:04:13;34.00;;;18.75;;
39308;SDS011;26019;47.510;19.122;2022-10-17T20:14:18;43.53;;;20.55;;
39308;SDS011;26019;47.510;19.122;2022-10-17T20:24:25;37.15;;;19.98;;
39308;SDS011;26019;47.510;19.122;2022-10-17T20:34:30;40.13;;;19.25;;
39308;SDS011;26019;47.510;19.122;2022-10-17T20:44:38;42.92;;;20.42;;
39308;SDS011;26019;47.510;19.122;2022-10-17T20:54:46;40.25;;;19.83;;
39308;SDS011;26019;47.510;19.122;2022-10-17T21:04:48;38.43;;;20.87;;
39308;SDS011;26019;47.510;19.122;2022-10-17T21:15:02;33.90;;;20.88;;
39308;SDS011;26019;47.510;19.122;2022-10-17T21:25:35;35.30;;;20.17;;
39308;SDS011;26019;47.510;19.122;2022-10-17T21:36:14;36.47;;;21.20;;
39308;SDS011;26019;47.510;19.122;2022-10-17T21:46:57;47.40;;;22.02;;
39308;SDS011;26019;47.510;19.122;2022-10-17T21:56:58;34.63;;;21.83;;
39308;SDS011;26019;47.510;19.122;2022-10-17T22:07:00;46.50;;;23.63;;
39308;SDS011;26019;47.510;19.122;2022-10-17T22:17:07;39.85;;;23.10;;
39308;SDS011;26019;47.510;19.122;2022-10-17T22:27:08;36.15;;;22.83;;
39308;SDS011;26019;47.510;19.122;2022-10-17T22:37:10;37.22;;;23.08;;
39308;SDS011;26019;47.510;19.122;2022-10-17T22:47:12;40.83;;;25.70;;
39308;SDS011;26019;47.510;19.122;2022-10-17T22:57:14;37.60;;;24.02;;
39308;SDS011;26019;47.510;19.122;2022-10-17T23:07:15;35.80;;;24.48;;
39308;SDS011;26019;47.510;19.122;2022-10-17T23:17:17;42.42;;;25.15;;
39308;SDS011;26019;47.510;19.122;2022-10-17T23:37:25;37.45;;;25.10;;
39308;SDS011;26019;47.510;19.122;2022-10-17T23:47:27;39.65;;;25.40;;
39308;SDS011;26019;47.510;19.122;2022-10-17T23:57:31;40.78;;;24.17;;
